createdAt,value
2022-08-26T00:02:17.408Z,8.80
2022-08-26T00:04:51.259Z,8.10
2022-08-26T00:07:20.466Z,8.32
2022-08-26T00:09:48.692Z,8.00
2022-08-26T00:12:19.615Z,7.90
2022-08-26T00:15:04.721Z,8.40
2022-08-26T00:17:32.827Z,8.15
2022-08-26T00:20:01.143Z,7.88
2022-08-26T00:22:29.362Z,8.90
2022-08-26T00:24:57.518Z,8.18
2022-08-26T00:27:27.053Z,8.60
2022-08-26T00:29:56.243Z,9.23
2022-08-26T00:32:25.069Z,8.57
2022-08-26T00:34:54.334Z,8.52
2022-08-26T00:37:25.698Z,9.00
2022-08-26T00:39:54.821Z,8.07
2022-08-26T00:42:27.654Z,8.55
2022-08-26T00:44:56.567Z,8.70
2022-08-26T00:47:30.999Z,8.35
2022-08-26T00:50:00.866Z,8.90
2022-08-26T00:52:29.888Z,8.57
2022-08-26T00:55:05.263Z,7.97
2022-08-26T00:57:36.773Z,8.65
2022-08-26T01:00:09.999Z,8.85
2022-08-26T01:02:46.894Z,8.25
2022-08-26T01:05:16.897Z,9.43
2022-08-26T01:07:45.465Z,7.68
2022-08-26T01:10:17.988Z,8.07
2022-08-26T01:12:51.038Z,8.63
2022-08-26T01:15:23.979Z,7.82
2022-08-26T01:17:54.455Z,8.60
2022-08-26T01:20:30.315Z,8.75
2022-08-26T01:23:03.205Z,9.68
2022-08-26T01:25:34.555Z,9.40
2022-08-26T01:28:06.886Z,9.05
2022-08-26T01:30:36.652Z,10.18
2022-08-26T01:33:10.063Z,9.20
2022-08-26T01:35:44.379Z,8.98
2022-08-26T01:38:16.834Z,9.35
2022-08-26T01:40:48.009Z,9.60
2022-08-26T01:43:24.010Z,10.55
2022-08-26T01:45:54.695Z,10.45
2022-08-26T01:48:27.514Z,9.55
2022-08-26T01:50:58.440Z,10.38
2022-08-26T01:53:32.929Z,10.48
2022-08-26T01:56:05.260Z,9.82
2022-08-26T01:58:39.711Z,9.40
2022-08-26T02:01:09.703Z,9.95
2022-08-26T02:03:51.453Z,11.00
2022-08-26T02:06:22.140Z,10.18
2022-08-26T02:08:55.312Z,10.13
2022-08-26T02:11:23.976Z,10.40
2022-08-26T02:13:59.755Z,9.80
2022-08-26T02:16:29.742Z,10.18
2022-08-26T02:19:02.430Z,9.75
2022-08-26T02:21:32.099Z,9.65
2022-08-26T02:24:11.433Z,10.07
2022-08-26T02:26:40.991Z,10.25
2022-08-26T02:29:17.633Z,10.02
2022-08-26T02:31:45.832Z,10.43
2022-08-26T02:34:16.160Z,9.77
2022-08-26T02:36:44.497Z,10.85
2022-08-26T02:39:18.004Z,10.00
2022-08-26T02:41:52.873Z,9.95
2022-08-26T02:44:21.066Z,10.70
2022-08-26T02:46:49.266Z,10.27
2022-08-26T02:49:20.654Z,10.40
2022-08-26T02:51:49.765Z,10.73
2022-08-26T02:54:21.824Z,10.95
2022-08-26T02:56:50.755Z,11.65
2022-08-26T02:59:24.404Z,11.15
2022-08-26T03:01:53.202Z,10.38
2022-08-26T03:04:26.420Z,12.00
2022-08-26T03:06:55.301Z,10.80
2022-08-26T03:09:25.373Z,10.90
2022-08-26T03:11:56.056Z,10.70
2022-08-26T03:14:27.114Z,11.57
2022-08-26T03:16:55.429Z,11.17
2022-08-26T03:19:25.046Z,11.13
2022-08-26T03:21:57.959Z,11.73
2022-08-26T03:24:28.062Z,10.60
2022-08-26T03:26:56.851Z,10.97
2022-08-26T03:29:45.113Z,11.75
2022-08-26T03:32:17.827Z,12.17
2022-08-26T03:34:48.679Z,11.63
2022-08-26T03:37:20.903Z,13.97
2022-08-26T03:39:51.044Z,12.23
2022-08-26T03:42:22.091Z,13.27
2022-08-26T03:44:53.276Z,12.43
2022-08-26T03:47:21.948Z,12.30
2022-08-26T03:49:50.220Z,13.83
2022-08-26T03:52:22.486Z,13.37
2022-08-26T03:54:52.221Z,17.90
2022-08-26T03:57:20.746Z,19.20
2022-08-26T03:59:50.368Z,16.70
2022-08-26T04:02:19.927Z,18.37
2022-08-26T04:04:48.349Z,18.27
2022-08-26T04:07:16.537Z,18.40
2022-08-26T04:09:48.556Z,18.43
2022-08-26T04:12:18.196Z,18.70
2022-08-26T04:14:46.549Z,18.50
2022-08-26T04:17:15.757Z,21.53
2022-08-26T04:19:44.880Z,21.93
2022-08-26T04:22:13.736Z,19.73
2022-08-26T04:24:44.500Z,19.80
2022-08-26T04:27:14.139Z,19.10
2022-08-26T04:29:46.185Z,21.27
2022-08-26T04:32:18.419Z,19.43
2022-08-26T04:34:46.637Z,22.03
2022-08-26T04:37:14.830Z,24.37
2022-08-26T04:39:43.057Z,22.97
2022-08-26T04:42:13.882Z,25.93
2022-08-26T04:44:43.430Z,27.13
2022-08-26T04:47:11.811Z,25.30
2022-08-26T04:49:40.077Z,26.13
2022-08-26T04:52:13.077Z,30.50
2022-08-26T04:54:42.016Z,26.17
2022-08-26T04:57:12.997Z,27.63
2022-08-26T04:59:45.237Z,31.33
2022-08-26T05:02:14.360Z,31.83
2022-08-26T05:04:44.986Z,32.03
2022-08-26T05:07:13.245Z,35.87
2022-08-26T05:09:42.201Z,35.30
2022-08-26T05:12:10.731Z,33.23
2022-08-26T05:14:39.275Z,37.57
2022-08-26T05:17:09.257Z,41.03
2022-08-26T05:19:43.280Z,42.20
2022-08-26T05:22:13.075Z,40.10
2022-08-26T05:24:41.555Z,38.40
2022-08-26T05:27:11.734Z,39.17
2022-08-26T05:29:40.669Z,42.50
2022-08-26T05:32:11.221Z,40.40
2022-08-26T05:34:39.590Z,40.70
2022-08-26T05:37:13.771Z,42.97
2022-08-26T05:39:51.215Z,43.13
2022-08-26T05:42:21.991Z,44.80
2022-08-26T05:44:55.675Z,41.53
2022-08-26T05:47:26.443Z,45.80
2022-08-26T05:49:57.458Z,41.17
2022-08-26T05:52:26.156Z,40.67
2022-08-26T05:54:54.372Z,42.90
2022-08-26T05:57:23.200Z,44.90
2022-08-26T05:59:52.242Z,40.20
2022-08-26T06:02:20.956Z,36.50
2022-08-26T06:04:50.761Z,40.70
2022-08-26T06:07:43.028Z,39.10
2022-08-26T06:10:31.458Z,38.83
2022-08-26T06:13:09.127Z,40.87
2022-08-26T06:15:42.959Z,42.60
2022-08-26T06:18:14.505Z,39.23
2022-08-26T06:20:57.407Z,39.17
2022-08-26T06:23:46.016Z,38.80
2022-08-26T06:26:14.756Z,37.70
2022-08-26T06:28:45.583Z,37.13
2022-08-26T06:31:16.583Z,36.10
2022-08-26T06:33:45.406Z,34.97
2022-08-26T06:36:19.405Z,35.73
2022-08-26T06:38:48.614Z,36.50
2022-08-26T06:41:18.166Z,38.57
2022-08-26T06:43:46.306Z,36.97
2022-08-26T06:46:19.607Z,36.13
2022-08-26T06:48:48.067Z,34.97
2022-08-26T06:51:23.824Z,37.33
2022-08-26T06:53:54.077Z,31.57
2022-08-26T06:56:25.072Z,31.37
2022-08-26T06:58:56.579Z,33.97
2022-08-26T07:01:27.470Z,35.78
2022-08-26T07:04:00.170Z,33.27
2022-08-26T07:06:29.910Z,33.40
2022-08-26T07:09:04.083Z,32.57
2022-08-26T07:11:33.267Z,31.50
2022-08-26T07:14:04.439Z,30.93
2022-08-26T07:16:32.846Z,32.80
2022-08-26T07:19:03.417Z,31.17
2022-08-26T07:21:41.702Z,31.33
2022-08-26T07:24:11.157Z,35.50
2022-08-26T07:26:43.001Z,32.80
2022-08-26T07:29:12.427Z,37.70
2022-08-26T07:31:42.863Z,36.35
2022-08-26T07:34:13.619Z,35.87
2022-08-26T07:36:43.389Z,35.47
2022-08-26T07:39:11.588Z,34.20
2022-08-26T07:41:39.847Z,36.67
2022-08-26T07:44:08.746Z,36.78
2022-08-26T07:46:38.340Z,35.28
2022-08-26T07:49:06.833Z,34.85
2022-08-26T07:51:38.217Z,35.47
2022-08-26T07:54:08.235Z,33.87
2022-08-26T07:56:36.595Z,36.00
2022-08-26T07:59:13.651Z,33.07
2022-08-26T08:01:45.083Z,31.02
2022-08-26T08:04:19.410Z,33.03
2022-08-26T08:06:56.691Z,32.55
2022-08-26T08:09:26.408Z,33.00
2022-08-26T08:11:55.631Z,33.90
2022-08-26T08:14:23.895Z,31.63
2022-08-26T08:16:54.853Z,35.03
2022-08-26T08:19:27.672Z,34.50
2022-08-26T08:22:05.271Z,32.17
2022-08-26T08:24:49.677Z,34.40
2022-08-26T08:27:23.838Z,34.17
2022-08-26T08:29:55.719Z,33.70
2022-08-26T08:32:24.906Z,32.72
2022-08-26T08:34:56.513Z,32.08
2022-08-26T08:37:24.875Z,30.75
2022-08-26T08:39:54.541Z,32.38
2022-08-26T08:42:43.702Z,29.58
2022-08-26T08:45:16.877Z,32.35
2022-08-26T08:47:51.377Z,30.02
2022-08-26T08:50:27.098Z,32.13
2022-08-26T08:53:09.296Z,32.00
2022-08-26T08:55:59.437Z,33.78
2022-08-26T08:58:43.674Z,30.65
2022-08-26T09:01:20.985Z,31.80
2022-08-26T09:03:56.897Z,28.13
2022-08-26T09:06:27.689Z,31.33
2022-08-26T09:08:58.609Z,29.35
2022-08-26T09:11:28.354Z,29.15
2022-08-26T09:13:57.756Z,30.52
2022-08-26T09:16:38.390Z,30.77
2022-08-26T09:19:19.176Z,28.95
2022-08-26T09:21:55.537Z,28.02
2022-08-26T09:24:28.419Z,28.25
2022-08-26T09:26:59.184Z,29.35
2022-08-26T09:29:30.523Z,26.92
2022-08-26T09:32:16.326Z,27.15
2022-08-26T09:34:56.319Z,24.83
2022-08-26T09:37:37.536Z,25.20
2022-08-26T09:40:27.043Z,25.13
2022-08-26T09:43:22.703Z,24.20
2022-08-26T09:45:59.513Z,22.27
2022-08-26T09:48:32.459Z,25.02
2022-08-26T09:51:06.925Z,23.30
2022-08-26T09:53:38.640Z,21.95
2022-08-26T09:56:16.589Z,24.27
2022-08-26T09:58:48.277Z,23.90
2022-08-26T10:01:26.277Z,22.48
2022-08-26T10:04:06.728Z,23.05
2022-08-26T10:06:40.219Z,23.30
2022-08-26T10:09:14.792Z,22.20
2022-08-26T10:11:47.299Z,22.73
2022-08-26T10:14:24.412Z,21.20
2022-08-26T10:16:58.575Z,21.48
2022-08-26T10:19:55.957Z,20.90
2022-08-26T10:22:32.685Z,20.98
2022-08-26T10:25:04.798Z,20.77
2022-08-26T10:27:49.728Z,22.08
2022-08-26T10:30:23.433Z,21.33
2022-08-26T10:32:56.787Z,23.08
2022-08-26T10:35:28.520Z,22.48
2022-08-26T10:37:59.736Z,20.30
2022-08-26T10:40:38.636Z,21.13
2022-08-26T10:43:11.386Z,21.73
2022-08-26T10:45:48.925Z,21.20
2022-08-26T10:48:22.306Z,19.13
2022-08-26T10:50:51.445Z,21.15
2022-08-26T10:53:26.540Z,19.20
2022-08-26T10:56:03.975Z,19.27
2022-08-26T10:58:55.921Z,18.25
2022-08-26T11:01:43.360Z,17.92
2022-08-26T11:04:28.844Z,17.83
2022-08-26T11:07:32.244Z,17.40
2022-08-26T11:10:06.753Z,17.95
2022-08-26T11:12:55.303Z,16.90
2022-08-26T11:16:01.088Z,16.90
2022-08-26T11:18:46.989Z,16.77
2022-08-26T11:21:53.687Z,17.33
2022-08-26T11:25:01.370Z,16.58
2022-08-26T11:28:02.717Z,17.95
2022-08-26T11:30:56.870Z,16.73
2022-08-26T11:33:56.991Z,16.98
2022-08-26T11:36:45.401Z,16.05
2022-08-26T11:39:21.278Z,16.30
2022-08-26T11:41:52.644Z,14.85
2022-08-26T11:44:27.422Z,15.50
2022-08-26T11:46:58.120Z,14.60
2022-08-26T11:49:29.133Z,14.25
2022-08-26T11:52:11.348Z,14.77
2022-08-26T11:54:42.284Z,13.73
2022-08-26T11:57:14.389Z,12.95
2022-08-26T11:59:45.797Z,14.38
2022-08-26T12:02:19.101Z,13.00
2022-08-26T12:04:51.526Z,13.57
2022-08-26T12:07:24.804Z,13.23
2022-08-26T12:09:56.518Z,12.88
2022-08-26T12:12:35.167Z,13.05
2022-08-26T12:15:16.168Z,12.50
2022-08-26T12:17:45.530Z,12.45
2022-08-26T12:20:45.936Z,11.73
2022-08-26T12:23:25.541Z,11.65
2022-08-26T12:26:03.977Z,11.00
2022-08-26T12:28:34.610Z,12.88
2022-08-26T12:31:07.610Z,12.60
2022-08-26T12:33:37.000Z,11.70
2022-08-26T12:36:07.725Z,9.70
2022-08-26T12:38:40.418Z,10.60
2022-08-26T12:41:08.842Z,10.85
2022-08-26T12:43:40.335Z,9.90
2022-08-26T12:46:10.107Z,9.05
2022-08-26T12:48:42.630Z,8.70
2022-08-26T12:51:29.788Z,8.40
2022-08-26T12:53:59.234Z,7.43
2022-08-26T12:56:36.395Z,6.97
2022-08-26T12:59:20.398Z,8.07
2022-08-26T13:01:51.400Z,6.53
2022-08-26T13:04:41.430Z,6.55
2022-08-26T13:07:26.362Z,6.82
2022-08-26T13:09:58.599Z,7.15
2022-08-26T13:12:32.010Z,7.10
2022-08-26T13:15:03.680Z,6.97
2022-08-26T13:17:35.884Z,6.90
2022-08-26T13:20:08.007Z,5.78
2022-08-26T13:22:38.273Z,6.97
2022-08-26T13:25:09.507Z,6.50
2022-08-26T13:27:37.748Z,6.90
2022-08-26T13:30:06.667Z,6.53
2022-08-26T13:32:36.361Z,6.70
2022-08-26T13:35:06.608Z,6.30
2022-08-26T13:37:38.437Z,5.30
2022-08-26T13:40:14.364Z,5.80
2022-08-26T13:42:49.632Z,5.70
2022-08-26T13:45:18.453Z,4.93
2022-08-26T13:47:49.047Z,6.10
2022-08-26T13:50:19.727Z,4.88
2022-08-26T13:52:49.315Z,5.40
2022-08-26T13:55:17.847Z,6.07
2022-08-26T13:57:46.138Z,6.30
2022-08-26T14:00:15.875Z,5.72
2022-08-26T14:02:44.070Z,5.10
2022-08-26T14:05:15.000Z,4.95
2022-08-26T14:07:46.302Z,5.15
2022-08-26T14:10:16.004Z,4.00
2022-08-26T14:12:45.691Z,4.38
2022-08-26T14:15:18.537Z,4.88
2022-08-26T14:17:50.705Z,4.55
2022-08-26T14:20:23.558Z,4.60
2022-08-26T14:23:12.595Z,4.82
2022-08-26T14:25:41.642Z,4.97
2022-08-26T14:28:14.380Z,5.00
2022-08-26T14:30:44.432Z,5.32
2022-08-26T14:33:14.979Z,4.90
2022-08-26T14:35:48.824Z,4.65
2022-08-26T14:38:20.045Z,5.30
2022-08-26T14:40:49.650Z,5.07
2022-08-26T14:43:20.208Z,4.97
2022-08-26T14:45:50.490Z,5.35
2022-08-26T14:48:20.978Z,5.22
2022-08-26T14:50:51.595Z,5.05
2022-08-26T14:53:37.214Z,4.30
2022-08-26T14:56:07.089Z,4.65
2022-08-26T14:58:37.713Z,4.22
2022-08-26T15:01:08.189Z,4.70
2022-08-26T15:03:36.509Z,4.63
2022-08-26T15:06:08.448Z,4.68
2022-08-26T15:08:37.372Z,4.20
2022-08-26T15:11:07.213Z,4.60
2022-08-26T15:13:35.680Z,4.07
2022-08-26T15:16:04.446Z,3.80
2022-08-26T15:18:32.756Z,4.18
2022-08-26T15:21:00.962Z,3.88
2022-08-26T15:23:29.202Z,4.05
2022-08-26T15:25:57.554Z,3.67
2022-08-26T15:28:29.690Z,3.25
2022-08-26T15:30:57.923Z,3.33
2022-08-26T15:33:26.146Z,3.53
2022-08-26T15:35:54.680Z,3.63
2022-08-26T15:38:25.175Z,3.75
2022-08-26T15:40:57.787Z,4.20
2022-08-26T15:43:32.974Z,3.55
2022-08-26T15:46:04.732Z,3.30
2022-08-26T15:48:32.980Z,3.55
2022-08-26T15:51:03.493Z,3.33
2022-08-26T15:53:34.447Z,3.30
2022-08-26T15:56:02.924Z,3.40
2022-08-26T15:58:35.332Z,3.33
2022-08-26T16:01:04.762Z,3.20
2022-08-26T16:03:32.905Z,3.50
2022-08-26T16:06:03.816Z,3.45
2022-08-26T16:08:36.459Z,3.35
2022-08-26T16:11:07.430Z,3.45
2022-08-26T16:13:39.940Z,4.22
2022-08-26T16:16:09.003Z,4.68
2022-08-26T16:18:39.907Z,3.30
2022-08-26T16:21:13.507Z,4.00
2022-08-26T16:23:45.152Z,4.20
2022-08-26T16:26:17.776Z,3.30
2022-08-26T16:28:47.530Z,3.42
2022-08-26T16:31:18.628Z,3.88
2022-08-26T16:33:47.258Z,3.53
2022-08-26T16:36:18.269Z,3.67
2022-08-26T16:38:50.196Z,3.90
2022-08-26T16:41:21.179Z,3.75
2022-08-26T16:43:53.293Z,3.78
2022-08-26T16:46:25.739Z,3.15
2022-08-26T16:48:58.083Z,3.33
2022-08-26T16:51:28.202Z,3.30
2022-08-26T16:53:58.077Z,3.33
2022-08-26T16:56:34.025Z,3.03
2022-08-26T16:59:04.468Z,3.17
2022-08-26T17:01:32.855Z,3.45
2022-08-26T17:04:01.193Z,3.38
2022-08-26T17:06:29.677Z,3.65
2022-08-26T17:08:58.057Z,3.70
2022-08-26T17:11:26.220Z,3.20
2022-08-26T17:13:54.451Z,3.28
2022-08-26T17:16:26.897Z,3.42
2022-08-26T17:18:58.753Z,2.88
2022-08-26T17:21:30.353Z,2.85
2022-08-26T17:23:58.762Z,2.90
2022-08-26T17:26:27.249Z,2.38
2022-08-26T17:28:55.890Z,2.72
2022-08-26T17:31:27.842Z,2.47
2022-08-26T17:33:56.754Z,3.30
2022-08-26T17:36:27.633Z,2.50
2022-08-26T17:38:57.324Z,2.40
2022-08-26T17:41:28.845Z,2.58
2022-08-26T17:44:02.792Z,2.42
2022-08-26T17:46:36.494Z,2.35
2022-08-26T17:49:09.983Z,2.55
2022-08-26T17:51:41.414Z,2.33
2022-08-26T17:54:12.334Z,2.38
2022-08-26T17:56:40.594Z,2.40
2022-08-26T17:59:12.055Z,2.08
2022-08-26T18:01:44.710Z,1.90
2022-08-26T18:04:15.234Z,2.08
2022-08-26T18:06:44.506Z,2.40
2022-08-26T18:09:15.337Z,2.00
2022-08-26T18:11:43.750Z,2.08
2022-08-26T18:14:14.238Z,2.50
2022-08-26T18:16:42.444Z,2.17
2022-08-26T18:19:12.831Z,2.58
2022-08-26T18:21:43.796Z,3.15
2022-08-26T18:24:13.987Z,2.83
2022-08-26T18:26:48.013Z,3.17
2022-08-26T18:29:18.124Z,2.90
2022-08-26T18:31:46.617Z,2.85
2022-08-26T18:34:19.698Z,2.53
2022-08-26T18:36:48.536Z,2.65
2022-08-26T18:39:22.188Z,2.37
2022-08-26T18:41:53.316Z,2.40
2022-08-26T18:44:24.298Z,2.78
2022-08-26T18:46:53.427Z,2.87
2022-08-26T18:49:23.680Z,2.83
2022-08-26T18:51:54.765Z,2.70
2022-08-26T18:54:25.792Z,3.03
2022-08-26T18:56:54.349Z,2.30
2022-08-26T18:59:29.655Z,2.90
2022-08-26T19:01:59.203Z,3.13
2022-08-26T19:04:31.215Z,2.97
2022-08-26T19:06:59.692Z,2.93
2022-08-26T19:09:28.447Z,3.05
2022-08-26T19:14:31.143Z,2.60
2022-08-26T19:17:02.649Z,2.77
2022-08-26T19:19:34.665Z,2.83
2022-08-26T19:22:05.435Z,2.83
2022-08-26T19:24:38.525Z,3.30
2022-08-26T19:27:07.392Z,2.93
2022-08-26T19:29:37.819Z,2.87
2022-08-26T19:32:08.722Z,3.20
2022-08-26T19:34:40.711Z,3.07
2022-08-26T19:37:09.080Z,3.17
2022-08-26T19:39:37.427Z,3.27
2022-08-26T19:42:06.075Z,3.20
2022-08-26T19:44:54.106Z,3.57
2022-08-26T19:47:23.134Z,3.60
2022-08-26T19:49:55.953Z,3.90
2022-08-26T19:52:30.222Z,4.07
2022-08-26T19:55:02.218Z,3.33
2022-08-26T19:57:32.781Z,3.70
2022-08-26T20:00:01.232Z,3.20
2022-08-26T20:02:30.457Z,3.90
2022-08-26T20:05:00.145Z,4.90
2022-08-26T20:07:28.379Z,4.63
2022-08-26T20:09:59.575Z,4.40
2022-08-26T20:12:29.263Z,3.97
2022-08-26T20:14:57.917Z,4.07
2022-08-26T20:17:28.417Z,4.00
2022-08-26T20:20:26.716Z,4.03
2022-08-26T20:23:05.325Z,3.97
2022-08-26T20:25:36.517Z,3.57
2022-08-26T20:28:05.207Z,3.53
2022-08-26T20:30:33.489Z,4.03
2022-08-26T20:33:01.614Z,3.83
2022-08-26T20:35:29.829Z,3.90
2022-08-26T20:37:57.955Z,4.00
2022-08-26T20:40:27.911Z,4.50
2022-08-26T20:42:56.369Z,4.37
2022-08-26T20:45:24.619Z,5.03
2022-08-26T20:47:52.894Z,4.27
2022-08-26T20:50:21.285Z,4.57
2022-08-26T20:52:49.560Z,4.50
2022-08-26T20:55:18.567Z,4.23
2022-08-26T20:57:49.523Z,4.03
2022-08-26T21:00:22.570Z,4.63
2022-08-26T21:02:57.487Z,4.67
2022-08-26T21:05:28.769Z,4.23
2022-08-26T21:07:59.501Z,4.33
2022-08-26T21:10:31.471Z,4.30
2022-08-26T21:13:01.461Z,5.70
2022-08-26T21:15:32.858Z,4.40
2022-08-26T21:18:01.532Z,4.60
2022-08-26T21:20:29.826Z,4.10
2022-08-26T21:23:00.634Z,4.80
2022-08-26T21:25:29.008Z,4.60
2022-08-26T21:28:00.909Z,4.23
2022-08-26T21:30:29.493Z,4.53
2022-08-26T21:33:00.671Z,4.87
2022-08-26T21:35:28.966Z,5.40
2022-08-26T21:37:57.158Z,4.93
2022-08-26T21:40:25.650Z,4.13
2022-08-26T21:42:53.870Z,5.03
2022-08-26T21:45:23.704Z,5.00
2022-08-26T21:47:51.981Z,5.03
2022-08-26T21:50:22.913Z,5.47
2022-08-26T21:52:51.117Z,4.63
2022-08-26T21:55:21.357Z,5.70
2022-08-26T21:57:49.538Z,5.60
2022-08-26T22:00:19.488Z,5.50
2022-08-26T22:02:52.135Z,5.50
2022-08-26T22:05:20.374Z,5.20
2022-08-26T22:07:48.596Z,5.37
2022-08-26T22:10:19.165Z,5.83
2022-08-26T22:12:49.497Z,5.40
2022-08-26T22:15:19.834Z,5.43
2022-08-26T22:17:48.022Z,4.90
2022-08-26T22:20:17.792Z,4.60
2022-08-26T22:22:46.218Z,5.23
2022-08-26T22:25:14.678Z,4.73
2022-08-26T22:27:45.473Z,4.83
2022-08-26T22:30:16.688Z,4.07
2022-08-26T22:32:47.593Z,4.30
2022-08-26T22:35:29.323Z,3.70
2022-08-26T22:38:00.474Z,3.50
2022-08-26T22:40:31.447Z,3.57
2022-08-26T22:43:02.435Z,3.13
2022-08-26T22:45:31.843Z,2.83
2022-08-26T22:48:04.649Z,2.63
2022-08-26T22:50:34.253Z,2.33
2022-08-26T22:53:05.858Z,2.57
2022-08-26T22:55:34.230Z,2.53
2022-08-26T22:58:02.440Z,2.10
2022-08-26T23:00:33.385Z,2.10
2022-08-26T23:03:02.845Z,2.00
2022-08-26T23:05:33.113Z,2.00
2022-08-26T23:08:03.995Z,1.93
2022-08-26T23:10:32.927Z,2.07
2022-08-26T23:13:01.740Z,1.90
2022-08-26T23:15:30.288Z,1.90
2022-08-26T23:17:59.124Z,1.83
2022-08-26T23:20:30.378Z,1.73
2022-08-26T23:23:02.817Z,1.70
2022-08-26T23:25:33.948Z,1.80
2022-08-26T23:28:03.193Z,2.10
2022-08-26T23:30:34.444Z,1.53
2022-08-26T23:33:02.885Z,1.67
2022-08-26T23:35:32.341Z,1.77
2022-08-26T23:38:02.579Z,1.70
2022-08-26T23:40:36.294Z,2.00
2022-08-26T23:43:09.471Z,1.60
2022-08-26T23:45:37.836Z,1.50
2022-08-26T23:48:07.615Z,1.60
2022-08-26T23:50:55.651Z,2.00
2022-08-26T23:53:25.235Z,1.60
2022-08-26T23:55:54.242Z,1.83
2022-08-26T23:58:23.137Z,1.97
